Latest Weather Observations for Goulburn Airport

IDN60801

Issued at 2:33 pm EST Friday 18 August 2017 (issued every 30 minutes, with the page automatically refreshed every 10 minutes)

About weather observations | Map of weather stations | Latest weather observations for NSW | Other Formats
Station Details ID: 070330 Name: GOULBURN AIRPORT AWS Lat: -34.81 Lon: 149.73 Height: 640.0 m
Data from the previous 72 hours. | See also: Recent months at Goulburn Airport
Date/Time
EST
Temp
°C
App
Temp
°C
Dew
Point
°C
Rel
Hum
%
Delta-T
°C
Wind Press
QNH
hPa
Press
MSL
hPa
Rain since
9am
mm
Dir  Spd
km/h
Gust
km/h
Spd
kts
Gust
kts
18/02:30pm 8.8 -3.3 0.8 57 3.4 W 54 72 29 39 1008.7 1009.3 0.0
18/02:08pm 8.3 -2.5 1.9 64 2.8 W 48 67 26 36 1008.4 1009.0 0.0
18/02:00pm 7.5 -5.2 0.5 61 2.9 W 57 72 31 39 1008.3 1008.9 0.0
18/01:30pm 8.4 -3.7 1.1 60 3.1 W 54 76 29 41 1008.4 1009.0 0.0
18/01:01pm 8.6 -4.0 1.3 60 3.1 W 57 76 31 41 1008.3 1008.9 0.0
18/01:00pm 8.6 -4.4 1.3 60 3.1 W 59 76 32 41 1008.3 1008.9 0.0
18/12:30pm 9.2 -1.9 2.3 62 3.0 WNW 50 69 27 37 1008.1 1008.8 0.0
18/12:00pm 7.9 -4.5 1.7 65 2.7 WNW 56 80 30 43 1008.6 1009.2 0.0
18/11:30am 7.8 -4.6 1.4 64 2.7 WNW 56 78 30 42 1008.5 1009.1 0.0
18/11:01am 6.9 -5.0 2.4 73 1.9 WNW 54 72 29 39 1008.9 1009.6 0.0
18/11:00am 7.0 -5.3 2.3 72 2.0 WNW 56 72 30 39 1008.8 1009.4 0.0
18/10:32am 7.4 -3.7 2.3 70 2.2 WNW 50 69 27 37 1008.9 1009.6 0.0
18/10:30am 7.2 -4.7 2.3 71 2.1 WNW 54 69 29 37 1009.0 1009.7 0.0
18/10:00am 6.2 -5.1 1.5 72 2.0 WNW 50 69 27 37 1009.2 1009.9 0.0
18/09:32am 6.1 -4.3 1.8 74 1.8 WNW 46 69 25 37 1009.0 1009.7 0.0
18/09:30am 5.8 -4.6 2.1 77 1.6 WNW 46 61 25 33 1009.1 1009.8 0.0
18/09:05am 5.5 -4.3 2.5 81 1.3 WNW 43 63 23 34 1009.1 1009.8 0.0
18/09:02am 5.1 -5.0 1.8 79 1.4 WNW 44 63 24 34 1009.1 1009.8 0.0
18/09:00am 5.1 -4.7 2.3 82 1.2 WNW 43 57 23 31 1009.1 1009.8 4.4
18/08:30am 5.3 -4.0 2.8 84 1.1 WNW 41 56 22 30 1008.8 1009.4 4.4
18/08:00am 4.5 -4.1 2.5 87 0.8 WNW 37 50 20 27 1008.6 1009.2 4.2
18/07:44am 3.4 -5.7 1.9 90 0.6 WNW 39 57 21 31 1008.8 1009.4 4.2
18/07:37am 3.6 -6.9 1.6 87 0.8 W 46 59 25 32 1008.6 1009.2 4.2
18/07:30am 4.2 -4.9 2.1 86 0.9 WNW 39 57 21 31 1008.5 1009.1 4.0
18/07:27am 4.2 -4.1 2.2 87 0.8 WNW 35 54 19 29 1008.4 1009.0 4.0
18/07:00am 3.8 -4.9 1.7 86 0.9 WNW 37 50 20 27 1008.0 1008.7 4.0
18/06:57am 3.8 -4.9 1.7 86 0.9 WNW 37 50 20 27 1007.9 1008.6 4.0
18/06:30am 3.7 -4.1 1.9 88 0.7 W 32 43 17 23 1007.7 1008.4 4.0
18/06:25am 3.7 -4.1 1.9 88 0.7 W 32 44 17 24 1007.7 1008.4 4.0
18/06:07am 4.5 -4.6 1.7 82 1.2 WNW 39 57 21 31 1007.3 1007.9 3.8
18/06:00am 4.5 -4.2 2.0 84 1.0 WNW 37 50 20 27 1007.4 1008.0 3.8
18/05:48am 4.6 -4.1 2.1 84 1.0 WNW 37 56 20 30 1007.3 1007.9 3.8
18/05:30am 4.4 -4.3 2.1 85 1.0 WNW 37 50 20 27 1007.1 1007.7 3.8
18/05:04am 4.5 -3.7 2.5 87 0.8 W 35 54 19 29 1007.1 1007.7 3.8
18/05:00am 4.4 -4.2 2.4 87 0.8 WNW 37 54 20 29 1007.2 1007.8 3.8
18/04:30am 4.8 -3.9 2.3 84 1.0 WNW 37 59 20 32 1006.7 1007.3 3.8
18/04:28am 4.7 -3.6 2.4 85 1.0 WNW 35 54 19 29 1006.8 1007.4 3.8
18/04:00am 4.8 -2.8 3.0 88 0.8 WNW 32 43 17 23 1007.0 1007.6 3.6
18/03:33am 4.6 -3.6 2.5 86 0.9 WNW 35 56 19 30 1006.7 1007.3 3.4
18/03:30am 4.8 -3.4 2.7 86 0.9 WNW 35 48 19 26 1006.7 1007.3 3.4
18/03:00am 5.3 -3.3 2.5 82 1.2 WNW 37 57 20 31 1006.7 1007.3 3.4
18/02:48am 5.5 -2.7 2.7 82 1.2 WNW 35 56 19 30 1006.9 1007.5 3.4
18/02:30am 5.6 -2.9 3.1 84 1.1 WNW 37 48 20 26 1007.1 1007.7 3.4
18/02:00am 5.4 -1.7 3.3 86 0.9 WNW 30 43 16 23 1007.1 1007.7 3.4
18/01:30am 5.1 -0.9 3.3 88 0.8 NW 24 35 13 19 1007.4 1008.0 3.4
18/01:15am 5.0 -2.2 3.2 88 0.8 WNW 30 41 16 22 1007.5 1008.2 3.4
18/01:03am 5.3 -2.4 3.2 86 0.9 WNW 33 46 18 25 1007.7 1008.4 3.4
18/01:00am 5.4 -2.3 3.3 86 0.9 WNW 33 50 18 27 1007.8 1008.5 3.4
18/12:52am 5.5 -1.2 3.7 88 0.8 WNW 28 50 15 27 1008.1 1008.8 3.4
18/12:30am 5.9 -1.7 3.7 86 1.0 WNW 33 46 18 25 1008.1 1008.8 2.8
18/12:10am 6.1 -1.5 3.8 85 1.0 WNW 33 43 18 23 1007.7 1008.4 2.8
18/12:03am 6.1 -1.3 3.9 86 1.0 WNW 32 41 17 22 1007.9 1008.6 2.8
18/12:00am 6.1 -1.4 4.4 89 0.8 WNW 33 48 18 26 1008.0 1008.7 2.6
 
Date/Time
EST
Temp
°C
App
Temp
°C
Dew
Point
°C
Rel
Hum
%
Delta-T
°C
Wind Press
QNH
hPa
Press
MSL
hPa
Rain since
9am
mm
Dir  Spd
km/h
Gust
km/h
Spd
kts
Gust
kts
17/11:52pm 6.0 -0.5 4.6 91 0.6 W 28 48 15 26 1008.4 1009.0 2.6
17/11:51pm 6.0 -0.5 4.6 91 0.6 W 28 48 15 26 1008.6 1009.2 2.6
17/11:46pm 5.9 0.5 4.5 91 0.6 W 22 28 12 15 1008.5 1009.1 2.0
17/11:30pm 6.0 0.2 4.2 88 0.8 W 24 30 13 16 1007.5 1008.2 0.8
17/11:07pm 6.0 -0.7 3.8 86 1.0 W 28 41 15 22 1007.4 1008.0 0.8
17/11:00pm 6.5 -1.5 4.0 84 1.1 W 35 56 19 30 1007.7 1008.4 0.8
17/10:53pm 6.8 -1.2 3.6 80 1.4 W 35 57 19 31 1007.5 1008.2 0.8
17/10:49pm 7.8 0.3 3.3 73 2.0 W 32 57 17 31 1007.9 1008.6 0.4
17/10:46pm 8.6 1.4 3.0 68 2.5 W 30 39 16 21 1007.7 1008.4 0.2
17/10:30pm 10.0 0.4 0.9 53 3.9 W 41 54 22 29 1007.1 1007.7 0.0
17/10:01pm 10.6 0.9 0.3 49 4.4 WNW 41 63 22 34 1006.9 1007.5 0.0
17/10:00pm 10.4 0.7 0.4 50 4.3 WNW 41 56 22 30 1006.9 1007.5 0.0
17/09:32pm 10.7 0.4 0.4 49 4.4 WNW 44 67 24 36 1007.1 1007.7 0.0
17/09:30pm 10.6 0.3 0.3 49 4.4 WNW 44 57 24 31 1007.2 1007.8 0.0
17/09:03pm 10.9 0.8 0.3 48 4.5 WNW 43 65 23 35 1007.1 1007.7 0.0
17/09:00pm 10.8 1.0 0.0 47 4.6 WNW 41 56 22 30 1007.2 1007.8 0.0
17/08:30pm 10.5 3.2 0.3 49 4.3 NW 28 39 15 21 1006.9 1007.5 0.0
17/08:13pm 10.7 2.2 0.7 50 4.3 WNW 35 54 19 29 1007.1 1007.7 0.0
17/08:00pm 10.9 2.7 0.6 49 4.4 NW 33 46 18 25 1007.0 1007.6 0.0
17/07:30pm 11.3 2.7 0.4 47 4.7 NW 35 44 19 24 1006.6 1007.2 0.0
17/07:20pm 11.3 2.3 0.4 47 4.7 NW 37 56 20 30 1006.4 1007.1 0.0
17/07:00pm 11.2 2.7 0.9 49 4.5 NW 35 50 19 27 1006.2 1006.9 0.0
17/06:30pm 11.5 2.7 1.5 50 4.4 NW 37 52 20 28 1006.3 1007.0 0.0
17/06:00pm 11.4 3.4 1.4 50 4.4 NW 33 50 18 27 1006.0 1006.6 0.0
17/05:30pm 11.0 3.0 1.5 52 4.2 NW 33 44 18 24 1005.8 1006.4 0.0
17/05:03pm 11.4 1.8 1.1 49 4.5 NW 41 59 22 32 1005.6 1006.2 0.0
17/05:00pm 11.5 1.5 1.2 49 4.5 NW 43 59 23 32 1005.5 1006.1 0.0
17/04:41pm 11.6 2.0 1.0 48 4.6 NW 41 59 22 32 1005.5 1006.1 0.0
17/04:30pm 12.1 2.1 1.1 47 4.8 NW 43 57 23 31 1005.5 1006.1 0.0
17/04:00pm 12.5 1.2 0.9 45 5.1 NW 50 72 27 39 1005.2 1005.8 0.0
17/03:30pm 13.3 3.2 1.6 45 5.2 NW 44 65 24 35 1005.3 1005.9 0.0
17/03:00pm 13.5 2.2 0.9 42 5.6 NW 50 72 27 39 1005.4 1006.0 0.0
17/02:30pm 13.4 1.8 1.4 44 5.3 NW 52 70 28 38 1005.7 1006.3 0.0
17/02:00pm 13.5 1.8 1.2 43 5.5 NW 52 70 28 38 1005.9 1006.5 0.0
17/01:34pm 14.0 2.6 0.6 40 5.9 NW 50 74 27 40 1006.0 1006.6 0.0
17/01:30pm 13.8 2.9 1.1 42 5.6 WNW 48 63 26 34 1006.2 1006.9 0.0
17/01:10pm 13.2 2.5 0.3 41 5.6 WNW 46 65 25 35 1006.4 1007.1 0.0
17/01:00pm 13.0 2.5 1.7 46 5.1 WNW 46 63 25 34 1006.8 1007.4 0.0
17/12:30pm 13.5 3.5 2.1 46 5.2 NW 44 65 24 35 1007.1 1007.7 0.0
17/12:00pm 13.5 3.4 3.8 52 4.6 WNW 46 65 25 35 1007.6 1008.3 0.0
17/11:30am 12.6 2.4 3.3 53 4.3 NW 46 65 25 35 1007.8 1008.5 0.0
17/11:20am 12.7 3.0 2.6 50 4.6 WNW 43 65 23 35 1008.0 1008.7 0.0
17/11:00am 13.4 3.7 3.8 52 4.5 NW 44 57 24 31 1008.3 1008.9 0.0
17/10:37am 12.5 2.6 2.9 52 4.4 WNW 44 63 24 34 1008.5 1009.1 0.0
17/10:30am 12.6 2.7 3.0 52 4.4 WNW 44 57 24 31 1008.5 1009.1 0.0
17/10:00am 12.3 2.9 2.5 51 4.4 NW 41 57 22 31 1008.6 1009.2 0.0
17/09:30am 12.5 4.1 3.5 54 4.2 NW 37 59 20 32 1008.8 1009.4 0.0
17/09:19am 11.9 3.3 2.6 53 4.2 NW 37 56 20 30 1008.8 1009.4 0.0
17/09:00am 11.6 3.1 2.9 55 4.0 NW 37 46 20 25 1008.7 1009.3 0.0
17/08:30am 10.6 3.0 2.9 59 3.5 NW 32 44 17 24 1008.9 1009.6 0.0
17/08:00am 9.1 2.2 2.4 63 2.9 NW 28 35 15 19 1008.8 1009.4 0.0
17/07:30am 7.9 1.7 2.4 68 2.4 NW 24 32 13 17 1008.8 1009.4 0.0
17/07:00am 6.8 1.0 2.1 72 2.0 NW 22 30 12 16 1008.5 1009.1 0.0
17/06:30am 6.1 0.2 1.8 74 1.8 NW 22 28 12 15 1008.5 1009.1 0.0
17/06:00am 6.5 -0.1 2.2 74 1.8 NW 26 32 14 17 1008.1 1008.8 0.0
17/05:30am 6.5 0.3 2.2 74 1.8 NW 24 30 13 16 1008.0 1008.7 0.0
17/05:00am 6.6 0.4 2.1 73 1.9 NW 24 32 13 17 1007.9 1008.6 0.0
17/04:30am 7.2 -0.2 2.1 70 2.2 WNW 30 37 16 20 1007.9 1008.6 0.0
17/04:00am 7.5 0.2 2.2 69 2.3 WNW 30 41 16 22 1007.9 1008.6 0.0
17/03:30am 7.3 0.0 2.2 70 2.2 WNW 30 39 16 21 1007.9 1008.6 0.0
17/03:00am 7.5 0.2 2.4 70 2.2 WNW 30 39 16 21 1008.1 1008.8 0.0
17/02:30am 7.7 0.8 2.8 71 2.1 WNW 28 37 15 20 1008.5 1009.1 0.0
17/02:00am 7.7 0.8 2.8 71 2.1 WNW 28 35 15 19 1008.7 1009.3 0.0
17/01:30am 7.9 1.5 3.0 71 2.2 WNW 26 39 14 21 1008.8 1009.4 0.0
17/01:00am 7.8 1.3 2.9 71 2.2 WNW 26 35 14 19 1009.0 1009.7 0.0
17/12:30am 7.7 1.6 2.8 71 2.1 NW 24 35 13 19 1009.2 1009.9 0.0
17/12:00am 8.0 2.0 3.1 71 2.2 NW 24 33 13 18 1009.3 1010.0 0.0
 
Date/Time
EST
Temp
°C
App
Temp
°C
Dew
Point
°C
Rel
Hum
%
Delta-T
°C
Wind Press
QNH
hPa
Press
MSL
hPa
Rain since
9am
mm
Dir  Spd
km/h
Gust
km/h
Spd
kts
Gust
kts
16/11:30pm 8.0 1.6 3.1 71 2.2 NW 26 41 14 22 1009.5 1010.2 0.0
16/11:00pm 8.0 2.0 3.3 72 2.1 NW 24 32 13 17 1009.6 1010.3 0.0
16/10:30pm 8.3 1.5 3.2 70 2.3 NW 28 37 15 20 1009.7 1010.4 0.0
16/10:00pm 7.6 2.4 3.3 74 1.9 NW 20 26 11 14 1009.6 1010.3 0.0
16/09:30pm 7.8 1.8 3.3 73 2.0 NW 24 30 13 16 1009.4 1010.1 0.0
16/09:00pm 8.5 2.5 3.4 70 2.3 NW 24 32 13 17 1009.5 1010.2 0.0
16/08:30pm 8.2 1.5 3.5 72 2.1 NW 28 35 15 19 1009.1 1009.8 0.0
16/08:00pm 8.4 1.3 3.5 71 2.2 NW 30 37 16 20 1008.9 1009.6 0.0
16/07:30pm 8.4 1.6 3.1 69 2.3 NW 28 37 15 20 1008.7 1009.3 0.0
16/07:00pm 8.9 1.3 3.1 67 2.6 NW 32 44 17 24 1008.3 1008.9 0.0
16/06:30pm 9.1 1.6 3.3 67 2.6 WNW 32 43 17 23 1007.7 1008.4 0.0
16/06:12pm 9.2 1.7 3.4 67 2.6 WNW 32 50 17 27 1007.5 1008.2 0.0
16/06:00pm 9.5 1.8 3.3 65 2.8 WNW 33 44 18 24 1007.2 1007.8 0.0
16/05:43pm 9.8 2.0 2.6 61 3.2 NW 33 52 18 28 1006.9 1007.5 0.0
16/05:30pm 9.8 1.2 2.4 60 3.3 WNW 37 52 20 28 1006.6 1007.2 0.0
16/05:00pm 10.3 2.0 2.2 57 3.6 WNW 35 48 19 26 1006.1 1006.7 0.0
16/04:30pm 10.7 2.1 2.8 58 3.5 WNW 37 50 20 27 1005.7 1006.3 0.0
16/04:06pm 11.6 1.8 2.1 52 4.2 WNW 43 61 23 33 1005.2 1005.8 0.0
16/04:00pm 11.7 1.3 1.9 51 4.4 WNW 46 63 25 34 1005.0 1005.6 0.0
16/03:33pm 12.0 2.8 3.3 55 4.0 WNW 41 59 22 32 1004.7 1005.3 0.0
16/03:30pm 11.3 1.5 2.3 54 4.0 WNW 43 59 23 32 1004.6 1005.2 0.0
16/03:00pm 11.7 0.6 2.7 54 4.1 WNW 50 76 27 41 1004.5 1005.1 0.0
16/02:34pm 11.3 1.8 3.8 60 3.5 WNW 43 61 23 33 1004.2 1004.8 0.0
16/02:30pm 11.0 1.3 4.0 62 3.2 WNW 44 59 24 32 1004.2 1004.8 0.0
16/02:00pm 9.7 -1.3 5.1 73 2.2 WNW 52 72 28 39 1003.9 1004.5 0.0
16/01:30pm 12.6 0.5 3.3 53 4.3 WNW 56 74 30 40 1003.3 1003.8 0.0
16/01:02pm 12.1 0.6 4.3 59 3.7 WNW 54 72 29 39 1003.0 1003.6 0.0
16/01:00pm 11.9 0.4 4.4 60 3.5 WNW 54 70 29 38 1003.0 1003.6 0.0
16/12:33pm 12.3 1.5 4.0 57 3.9 WNW 50 70 27 38 1002.8 1003.4 0.0
16/12:30pm 12.2 1.5 4.7 60 3.6 WNW 50 67 27 36 1002.8 1003.4 0.0
16/12:00pm 12.2 2.4 5.1 62 3.4 WNW 46 74 25 40 1002.8 1003.4 0.0
16/11:30am 10.5 -0.6 4.6 67 2.8 WNW 52 70 28 38 1002.9 1003.5 0.0
16/11:00am 10.6 0.8 5.4 70 2.5 WNW 46 70 25 38 1002.7 1003.3 0.0
16/10:35am 10.2 0.2 6.2 76 1.9 WNW 48 69 26 37 1002.8 1003.4 0.0
16/10:30am 10.2 1.2 7.4 83 1.4 WNW 44 61 24 33 1002.9 1003.5 0.0
16/10:00am 9.2 -1.2 5.9 80 1.6 WNW 50 72 27 39 1002.6 1003.2 0.0
16/09:35am 9.5 1.0 6.8 83 1.3 WNW 41 59 22 32 1002.1 1002.6 0.0
16/09:34am 9.6 1.1 7.0 84 1.3 WNW 41 59 22 32 1002.0 1002.5 0.0
16/09:30am 9.3 0.4 6.7 84 1.3 WNW 43 59 23 32 1002.0 1002.5 0.0
16/09:25am 9.2 0.4 7.2 87 1.0 WNW 43 61 23 33 1002.1 1002.6 0.0
16/09:05am 8.9 0.3 6.7 86 1.1 WNW 41 61 22 33 1001.8 1002.3 0.0
16/09:00am 8.9 0.3 6.7 86 1.1 WNW 41 57 22 31 1001.8 1002.3 7.2
16/08:31am 8.1 -1.0 6.1 87 0.9 WNW 43 59 23 32 1001.9 1002.4 7.2
16/08:30am 8.0 -0.6 6.3 89 0.8 WNW 41 56 22 30 1002.0 1002.5 7.2
16/08:16am 8.1 -1.5 6.4 89 0.8 WNW 46 65 25 35 1001.6 1002.1 6.6
16/08:13am 8.2 -2.1 6.3 88 0.9 WNW 50 65 27 35 1001.8 1002.3 6.6
16/08:00am 8.7 -0.5 6.5 86 1.1 WNW 44 65 24 35 1002.1 1002.6 5.6
16/07:30am 9.2 -0.2 7.3 88 0.9 WNW 46 65 25 35 1001.9 1002.4 4.8
16/07:00am 9.7 0.9 8.0 89 0.9 WNW 44 65 24 35 1001.1 1001.7 3.0
16/06:38am 9.9 1.0 7.8 87 1.0 WNW 44 65 24 35 1000.5 1001.0 2.0
16/06:30am 9.9 1.1 8.0 88 1.0 WNW 44 57 24 31 1000.6 1001.1 1.8
16/06:13am 10.0 1.9 8.6 91 0.7 WNW 41 61 22 33 1000.7 1001.2 1.4
16/06:05am 9.9 1.4 8.5 91 0.7 W 43 72 23 39 1000.6 1001.1 1.4
16/06:02am 9.9 1.4 8.5 91 0.7 W 43 72 23 39 1000.6 1001.1 1.2
16/06:01am 9.9 1.2 8.5 91 0.7 WNW 44 72 24 39 1000.7 1001.2 1.2
16/06:00am 9.9 1.2 8.5 91 0.7 WNW 44 72 24 39 1000.7 1001.2 1.2
16/05:41am 10.4 2.8 9.0 91 0.7 WNW 39 57 21 31 1000.5 1001.0 0.6
16/05:30am 10.4 2.9 9.3 93 0.6 WNW 39 48 21 26 1000.4 1000.9 0.4
16/05:20am 10.5 2.1 8.9 90 0.8 WNW 43 59 23 32 1000.0 1000.5 0.0
16/05:17am 10.6 2.0 8.9 89 0.9 WNW 44 59 24 32 1000.1 1000.6 0.0
16/05:00am 11.3 3.9 8.2 81 1.6 NW 37 63 20 34 999.7 1000.3 0.0
16/04:51am 11.5 4.1 8.2 80 1.7 NW 37 63 20 34 999.5 1000.0 0.0
16/04:30am 11.8 4.3 8.1 78 1.9 WNW 37 54 20 29 999.3 999.8 0.0
16/04:00am 12.3 5.6 7.4 72 2.5 WNW 32 44 17 24 998.5 999.0 0.0
16/03:30am 13.4 5.8 5.6 59 3.8 WNW 35 48 19 26 998.5 999.0 0.0
16/03:19am 14.3 6.9 4.9 53 4.5 WNW 33 46 18 25 998.5 999.0 0.0
16/03:00am 14.4 9.4 4.4 51 4.8 WNW 20 28 11 15 998.7 999.2 0.0
16/02:30am 13.5 9.4 4.4 54 4.3 WNW 15 17 8 9 999.0 999.5 0.0
16/02:00am 14.7 10.9 4.1 49 5.1 WNW 13 17 7 9 999.5 1000.0 0.0
16/01:30am 14.8 10.0 2.7 44 5.6 WNW 17 19 9 10 1000.1 1000.6 0.0
16/01:00am 18.0 12.1 1.9 34 7.6 NW 22 35 12 19 1000.7 1001.2 0.0
16/12:30am 18.6 11.2 2.0 33 7.8 N 30 41 16 22 1000.4 1000.9 0.0
16/12:00am 18.9 11.1 1.9 32 8.1 N 32 41 17 22 1001.1 1001.7 0.0
 
Date/Time
EST
Temp
°C
App
Temp
°C
Dew
Point
°C
Rel
Hum
%
Delta-T
°C
Wind Press
QNH
hPa
Press
MSL
hPa
Rain since
9am
mm
Dir  Spd
km/h
Gust
km/h
Spd
kts
Gust
kts
15/11:30pm 19.2 10.9 2.1 32 8.1 NNW 35 48 19 26 1001.8 1002.3 0.0
15/11:07pm 19.0 12.2 3.2 35 7.6 NNW 28 46 15 25 1002.3 1002.9 0.0
15/11:00pm 17.4 12.6 4.7 43 6.3 N 19 32 10 17 1002.5 1003.1 0.0
15/10:30pm 12.3 9.9 6.8 69 2.7 NNE 9 13 5 7 1003.1 1003.7 0.0
15/10:00pm 11.7 9.8 6.8 72 2.4 WNW 6 11 3 6 1003.9 1004.5 0.0
15/09:30pm 11.4 8.4 5.9 69 2.7 WNW 11 13 6 7 1004.4 1005.0 0.0
15/09:00pm 12.7 8.7 6.7 67 3.0 WNW 17 20 9 11 1005.2 1005.8 0.0
15/08:30pm 11.4 8.5 6.3 71 2.5 WNW 11 20 6 11 1006.1 1006.7 0.0
15/08:00pm 12.8 9.3 7.0 68 2.9 WNW 15 17 8 9 1006.3 1007.0 0.0
15/07:30pm 13.8 10.1 8.0 68 3.0 WNW 17 22 9 12 1007.2 1007.8 0.0
15/07:00pm 13.7 10.4 8.1 69 2.9 WNW 15 19 8 10 1007.4 1008.0 0.0
15/06:30pm 14.3 10.0 8.0 66 3.2 NW 20 26 11 14 1007.3 1007.9 0.0
15/06:00pm 14.4 10.2 8.1 66 3.3 NW 20 30 11 16 1007.1 1007.7 0.0
15/05:30pm 14.7 9.7 8.0 64 3.5 NW 24 32 13 17 1007.3 1007.9 0.0
15/05:00pm 15.2 9.0 8.0 62 3.7 WNW 30 35 16 19 1007.5 1008.2 0.0
15/04:30pm 15.5 10.9 8.0 61 3.9 NW 22 30 12 16 1007.4 1008.0 0.0
15/04:00pm 15.9 10.4 7.4 57 4.4 NW 26 33 14 18 1007.2 1007.8 0.0
15/03:30pm 17.0 10.8 7.9 55 4.8 WNW 30 39 16 21 1007.5 1008.2 0.0
15/03:00pm 17.1 9.2 8.0 55 4.8 WNW 39 48 21 26 1008.1 1008.8 0.0

Other Formats:

Comma delimited format used in spreadsheet applications
http://www.bom.gov.au/fwo/IDN60801/IDN60801.95716.axf

JavaScript Object Notation format (JSON) in row-major order
http://www.bom.gov.au/fwo/IDN60801/IDN60801.95716.json